Time;durP1;ratioP1;P1;durP2;ratioP2;P2;SDS_P1;SDS_P2;PMS_P1;PMS_P2;Temp;Humidity;BMP_temperature;BMP_pressure;BME280_temperature;BME280_humidity;BME280_pressure;Samples;Min_cycle;Max_cycle;Signal;HPM_P1;HPM_P2
2021/04/25 00:00:11;;;;;;;17.53;8.73;;;;;;;5.60;60.70;99115.08;239430;1199;23128;-74
2021/04/25 00:05:17;;;;;;;15.13;9.00;;;;;;;5.65;61.13;99107.17;239595;1196;23116;-75
2021/04/25 00:10:20;;;;;;;15.40;9.15;;;;;;;5.67;61.13;99109.58;239602;1196;23111;-75
2021/04/25 00:15:26;;;;;;;16.57;9.70;;;;;;;5.59;61.29;99104.70;239614;1196;23134;-75
2021/04/25 00:20:30;;;;;;;19.73;10.20;;;;;;;5.45;61.42;99097.08;239447;1199;23187;-75
2021/04/25 00:25:33;;;;;;;22.30;13.45;;;;;;;5.28;61.48;99091.81;239468;1196;23126;-75
2021/04/25 00:30:36;;;;;;;25.23;12.70;;;;;;;5.08;61.98;99083.59;239474;1196;23138;-75
2021/04/25 00:35:40;;;;;;;36.33;18.53;;;;;;;4.93;62.50;99078.86;239596;1195;23196;-75
2021/04/25 00:40:42;;;;;;;34.43;17.37;;;;;;;4.85;62.77;99079.27;239649;1196;26019;-75
2021/04/25 00:45:45;;;;;;;29.40;15.23;;;;;;;4.77;63.49;99077.81;239408;1196;23109;-76
2021/04/25 00:50:47;;;;;;;27.55;13.75;;;;;;;4.67;63.80;99075.02;239634;1196;23115;-76
2021/04/25 00:55:56;;;;;;;30.03;15.37;;;;;;;4.58;63.71;99070.11;239337;1196;23311;-75
2021/04/25 01:01:00;;;;;;;27.53;15.47;;;;;;;4.55;64.09;99067.94;239353;1196;23116;-77
2021/04/25 01:06:06;;;;;;;25.43;14.50;;;;;;;4.52;64.27;99067.61;239405;1196;23155;-75
2021/04/25 01:11:12;;;;;;;27.23;15.40;;;;;;;4.43;64.25;99067.20;239464;1196;23099;-75
2021/04/25 01:16:18;;;;;;;26.75;13.95;;;;;;;4.37;65.00;99066.32;239611;1198;23384;-76
2021/04/25 01:21:22;;;;;;;23.33;13.17;;;;;;;4.34;65.14;99071.29;239488;1196;23102;-75
2021/04/25 01:26:26;;;;;;;21.50;11.25;;;;;;;4.33;64.76;99067.05;239246;1196;23155;-76
2021/04/25 01:31:29;;;;;;;21.00;10.35;;;;;;;4.30;64.78;99059.58;239538;1196;23118;-76
2021/04/25 01:36:33;;;;;;;20.23;11.47;;;;;;;4.26;64.69;99065.34;239540;1195;23270;-76
2021/04/25 01:41:35;;;;;;;18.67;10.67;;;;;;;4.21;64.81;99061.80;239461;1199;23112;-75
2021/04/25 01:46:38;;;;;;;24.03;12.27;;;;;;;4.14;64.67;99064.63;239439;1196;23138;-75
2021/04/25 01:51:43;;;;;;;20.67;11.93;;;;;;;4.09;65.09;99067.17;239521;1196;23101;-75
2021/04/25 01:56:45;;;;;;;28.93;14.97;;;;;;;3.93;65.16;99058.95;239404;1196;23181;-76
2021/04/25 02:01:50;;;;;;;29.10;15.33;;;;;;;3.67;65.21;99068.27;239165;1196;23109;-75
2021/04/25 02:06:53;;;;;;;20.87;11.93;;;;;;;3.54;65.78;99066.70;239535;1196;23114;-75
2021/04/25 02:11:55;;;;;;;16.60;9.50;;;;;;;3.45;65.69;99062.00;239425;1199;24732;-75
2021/04/25 02:16:58;;;;;;;18.93;10.43;;;;;;;3.36;66.37;99059.71;239139;1196;23147;-76
2021/04/25 02:22:03;;;;;;;17.37;10.10;;;;;;;3.33;66.93;99048.77;239183;1196;23118;-76
2021/04/25 02:27:06;;;;;;;18.10;10.00;;;;;;;3.26;66.71;99046.27;239142;1196;23250;-76
2021/04/25 02:32:09;;;;;;;18.60;10.20;;;;;;;3.20;66.37;99047.98;239114;1196;23248;-76
2021/04/25 02:37:11;;;;;;;14.95;8.50;;;;;;;3.15;66.92;99044.42;239567;1198;23265;-75
2021/04/25 02:42:15;;;;;;;16.00;8.90;;;;;;;3.06;67.57;99049.28;239456;1196;23156;-75
2021/04/25 02:47:17;;;;;;;16.30;8.67;;;;;;;2.98;67.68;99044.34;239287;1196;23114;-75
2021/04/25 02:52:25;;;;;;;16.00;9.30;;;;;;;2.94;67.89;99045.83;239440;1196;23160;-75
2021/04/25 02:57:28;;;;;;;14.40;8.50;;;;;;;2.88;68.35;99039.63;239698;1196;23111;-75
2021/04/25 03:02:33;;;;;;;16.10;8.15;;;;;;;2.82;68.49;99051.94;239457;1196;23118;-75
2021/04/25 03:07:37;;;;;;;20.70;9.65;;;;;;;2.79;68.55;99041.82;239538;1196;23141;-75
2021/04/25 03:12:41;;;;;;;17.60;9.85;;;;;;;2.84;69.30;99033.18;239174;1196;23220;-75
2021/04/25 03:17:44;;;;;;;14.87;8.97;;;;;;;2.86;68.75;99028.48;239216;1195;23275;-75
2021/04/25 03:22:48;;;;;;;17.25;9.40;;;;;;;2.84;69.34;99033.18;239190;1196;23128;-76
2021/04/25 03:27:51;;;;;;;15.50;9.25;;;;;;;2.84;69.10;99023.42;239395;1196;23954;-75
2021/04/25 03:32:54;;;;;;;16.43;9.30;;;;;;;2.89;69.19;99025.36;239354;1197;23112;-75
2021/04/25 03:37:57;;;;;;;20.60;9.83;;;;;;;2.95;69.13;99034.22;239443;1196;23111;-75
2021/04/25 03:43:00;;;;;;;15.50;8.70;;;;;;;3.01;69.34;99030.66;239681;1196;26306;-75
2021/04/25 03:48:03;;;;;;;15.83;9.53;;;;;;;3.02;69.17;99024.31;239363;1196;23100;-75
2021/04/25 03:53:05;;;;;;;14.63;9.70;;;;;;;3.05;69.65;99029.13;239240;1199;23259;-75
2021/04/25 03:58:08;;;;;;;15.67;9.73;;;;;;;3.13;69.32;99023.48;239683;1196;23131;-76
2021/04/25 04:03:10;;;;;;;16.50;8.57;;;;;;;3.25;69.41;99021.62;239553;1196;23111;-75
2021/04/25 04:08:13;;;;;;;15.33;9.50;;;;;;;3.32;69.60;99021.49;239378;1196;23092;-77
2021/04/25 04:13:15;;;;;;;17.70;8.95;;;;;;;3.31;69.36;99027.83;239390;1196;25974;-76
2021/04/25 04:18:18;;;;;;;19.97;9.97;;;;;;;3.36;69.31;99027.14;239432;1196;23121;-75
2021/04/25 04:23:22;;;;;;;15.00;9.40;;;;;;;3.50;69.37;99023.17;239396;1196;23115;-76
2021/04/25 04:28:25;;;;;;;16.93;8.90;;;;;;;3.63;69.24;99019.44;239650;1199;24006;-74
2021/04/25 04:33:27;;;;;;;13.45;7.80;;;;;;;3.76;69.66;99026.28;239427;1196;23199;-75
2021/04/25 04:38:31;;;;;;;16.60;9.05;;;;;;;3.82;69.72;99030.66;239355;1196;23135;-75
2021/04/25 04:43:34;;;;;;;19.20;10.25;;;;;;;3.89;69.31;99027.84;239403;1196;23119;-75
2021/04/25 04:48:36;;;;;;;18.23;10.23;;;;;;;4.09;69.31;99033.50;239438;1196;23127;-75
2021/04/25 04:53:39;;;;;;;19.80;11.30;;;;;;;4.28;68.84;99031.44;239160;1196;23121;-75
2021/04/25 04:58:42;;;;;;;20.37;10.93;;;;;;;4.41;68.79;99034.83;239383;1196;23129;-75
2021/04/25 05:03:45;;;;;;;17.47;10.10;;;;;;;4.40;68.72;99041.96;239466;1199;23119;-76
2021/04/25 05:08:49;;;;;;;17.30;10.30;;;;;;;4.43;69.14;99040.68;239451;1195;23278;-76
2021/04/25 05:13:53;;;;;;;19.85;11.90;;;;;;;4.55;68.85;99033.45;239552;1196;23269;-75
2021/04/25 05:18:57;;;;;;;18.43;11.33;;;;;;;4.75;69.38;99029.49;239256;1196;23128;-75
2021/04/25 05:24:01;;;;;;;19.37;10.97;;;;;;;4.99;68.82;99026.63;239470;1196;23092;-76
2021/04/25 05:29:05;;;;;;;14.03;8.67;;;;;;;5.15;68.53;99031.11;239201;1199;23243;-75
2021/04/25 05:34:08;;;;;;;16.90;10.50;;;;;;;5.20;68.63;99033.80;239468;1196;23138;-76
2021/04/25 05:39:10;;;;;;;20.03;10.97;;;;;;;5.31;68.80;99026.77;239340;1196;23275;-76
2021/04/25 05:44:13;;;;;;;17.50;10.55;;;;;;;5.48;68.31;99016.89;239365;1198;23124;-75
2021/04/25 05:49:17;;;;;;;15.87;9.43;;;;;;;5.71;68.22;99025.64;239341;1196;24769;-76
2021/04/25 05:54:19;;;;;;;18.13;10.27;;;;;;;5.99;68.39;99024.61;239450;1196;23143;-76
2021/04/25 05:59:22;;;;;;;16.90;10.90;;;;;;;6.23;68.16;99029.61;239442;1195;23130;-75
2021/04/25 06:04:25;;;;;;;19.80;11.35;;;;;;;6.40;67.36;99032.14;240040;1198;23116;-75
2021/04/25 06:09:28;;;;;;;16.00;11.05;;;;;;;6.67;67.53;99024.09;239417;1196;23383;-74
2021/04/25 06:14:32;;;;;;;17.70;10.97;;;;;;;6.98;67.18;99024.28;239713;1196;23122;-77
2021/04/25 06:19:36;;;;;;;20.45;11.55;;;;;;;7.17;66.61;99019.30;239774;1196;23114;-75
2021/04/25 06:24:40;;;;;;;16.30;11.20;;;;;;;7.45;66.95;99024.48;239471;1199;23553;-76
2021/04/25 06:29:43;;;;;;;17.93;10.53;;;;;;;7.67;66.57;99024.28;239536;1198;27371;-75
2021/04/25 06:34:46;;;;;;;19.50;11.80;;;;;;;7.98;66.41;99021.68;239224;1197;23095;-76
2021/04/25 06:39:49;;;;;;;17.45;11.35;;;;;;;8.29;66.17;99021.70;239637;1199;23145;-76
2021/04/25 06:44:51;;;;;;;16.13;10.53;;;;;;;8.53;65.05;99024.64;239467;1196;23094;-76
2021/04/25 06:49:54;;;;;;;15.10;9.20;;;;;;;8.81;63.61;99017.14;239528;1196;23102;-74
2021/04/25 06:54:56;;;;;;;14.55;9.00;;;;;;;9.21;62.40;99024.23;239611;1199;23122;-76
2021/04/25 06:59:59;;;;;;;15.30;9.10;;;;;;;9.50;61.49;99028.13;239613;1196;23120;-76
2021/04/25 07:05:04;;;;;;;16.83;10.13;;;;;;;9.67;59.57;99023.23;239585;1196;23104;-75
2021/04/25 07:10:08;;;;;;;15.65;9.25;;;;;;;9.93;59.05;99028.42;239925;1195;23202;-75
2021/04/25 07:15:12;;;;;;;10.93;7.13;;;;;;;10.12;57.47;99033.14;239728;1196;23118;-76
2021/04/25 07:20:14;;;;;;;9.90;6.60;;;;;;;10.26;56.62;99031.42;239579;1199;23125;-76
2021/04/25 07:25:18;;;;;;;13.77;6.90;;;;;;;10.39;55.17;99035.36;239249;1196;26272;-75
2021/04/25 07:30:21;;;;;;;7.90;5.60;;;;;;;10.47;54.34;99024.05;239470;1196;23107;-76
2021/04/25 07:35:23;;;;;;;8.50;6.05;;;;;;;10.66;53.72;99031.38;239621;1199;23115;-76
2021/04/25 07:40:26;;;;;;;11.33;6.53;;;;;;;10.72;52.92;99036.41;239593;1196;23250;-75
2021/04/25 07:45:29;;;;;;;7.90;5.10;;;;;;;10.87;51.68;99029.29;239328;1199;23141;-75
2021/04/25 07:50:33;;;;;;;7.50;4.60;;;;;;;11.07;50.59;99025.61;239636;1196;23164;-75
2021/04/25 07:55:35;;;;;;;5.83;3.83;;;;;;;11.21;49.93;99031.09;239577;1195;23110;-76
2021/04/25 08:00:39;;;;;;;6.03;3.90;;;;;;;11.23;48.99;99029.69;239606;1196;23129;-76
2021/04/25 08:05:43;;;;;;;4.75;3.40;;;;;;;11.32;47.08;99035.25;239827;1196;23116;-76
2021/04/25 08:10:46;;;;;;;3.50;2.50;;;;;;;11.24;46.38;99030.52;239566;1196;23115;-76
2021/04/25 08:15:48;;;;;;;3.30;2.40;;;;;;;11.05;44.87;99033.94;239760;1195;23154;-76
2021/04/25 08:20:51;;;;;;;3.10;2.20;;;;;;;10.75;44.09;99032.37;239662;1196;23138;-76
2021/04/25 08:25:55;;;;;;;4.73;2.60;;;;;;;10.32;43.71;99032.97;239284;1196;23754;-75
2021/04/25 08:30:59;;;;;;;3.60;2.35;;;;;;;10.08;44.34;99035.56;239473;1196;23279;-76
2021/04/25 08:36:02;;;;;;;3.90;2.00;;;;;;;9.95;44.18;99034.31;239654;1196;23125;-76
2021/04/25 08:41:05;;;;;;;3.30;2.10;;;;;;;10.17;44.00;99031.22;239812;1196;23251;-75
2021/04/25 08:46:09;;;;;;;3.87;2.10;;;;;;;10.40;44.22;99027.04;239560;1196;23115;-76
2021/04/25 08:51:12;;;;;;;3.23;1.87;;;;;;;10.47;43.05;99028.61;239361;1199;23179;-77
2021/04/25 08:56:17;;;;;;;3.03;2.00;;;;;;;10.60;43.27;99031.44;239552;1196;23109;-76
2021/04/25 09:01:19;;;;;;;3.73;1.97;;;;;;;10.86;43.02;99020.46;239891;1198;23141;-76
2021/04/25 09:06:23;;;;;;;2.90;2.00;;;;;;;10.98;41.98;99024.63;239291;1196;23193;-76
2021/04/25 09:11:36;;;;;;;3.40;2.10;;;;;;;11.10;41.64;99025.83;239554;1196;23114;-75
2021/04/25 09:16:40;;;;;;;4.00;2.40;;;;;;;10.93;41.34;99026.28;239618;1195;23272;-76
2021/04/25 09:22:00;;;;;;;3.00;2.10;;;;;;;10.69;40.79;99020.91;239520;1196;23226;-76
2021/04/25 09:27:03;;;;;;;4.10;2.00;;;;;;;10.66;41.00;99026.83;239482;1195;23112;-76
2021/04/25 09:32:22;;;;;;;3.95;2.40;;;;;;;10.70;40.48;99019.01;239720;1196;23276;-76
2021/04/25 09:37:25;;;;;;;3.53;2.50;;;;;;;10.66;40.96;99016.11;239547;1196;24578;-76
2021/04/25 09:42:27;;;;;;;4.13;2.80;;;;;;;10.56;41.67;99024.23;239703;1196;23257;-77
2021/04/25 09:47:32;;;;;;;2.83;2.13;;;;;;;10.59;41.11;99023.66;239627;1196;23124;-76
2021/04/25 09:52:38;;;;;;;3.40;2.30;;;;;;;10.54;41.53;99027.19;239481;1197;23115;-77
2021/04/25 09:57:42;;;;;;;4.10;1.95;;;;;;;10.56;41.79;99021.55;239634;1199;26105;-77
2021/04/25 10:03:09;;;;;;;4.23;2.30;;;;;;;10.64;42.42;99034.34;239724;1196;23139;-76
2021/04/25 10:08:27;;;;;;;3.53;2.20;;;;;;;10.77;41.92;99032.88;239698;1196;23140;-76
2021/04/25 10:13:37;;;;;;;2.87;1.67;;;;;;;10.68;40.11;99030.02;239636;1196;23131;-79
2021/04/25 10:18:40;;;;;;;2.37;1.60;;;;;;;10.70;40.42;99030.55;239668;1196;23131;-77
2021/04/25 10:23:43;;;;;;;2.00;1.43;;;;;;;10.81;39.65;99022.39;239760;1196;23264;-76
2021/04/25 10:28:58;;;;;;;3.83;1.80;;;;;;;10.93;38.85;99038.89;239720;1196;23121;-76
2021/04/25 10:34:07;;;;;;;3.85;1.90;;;;;;;10.77;38.21;99041.73;239669;1199;23186;-76
2021/04/25 10:39:47;;;;;;;3.00;1.90;;;;;;;10.72;39.65;99041.77;239846;1199;23210;-76
2021/04/25 10:44:59;;;;;;;2.50;1.75;;;;;;;10.88;39.61;99046.98;239863;1196;23115;-76
2021/04/25 10:50:17;;;;;;;2.70;1.73;;;;;;;10.77;39.93;99054.30;239828;1196;23124;-76
2021/04/25 10:55:20;;;;;;;2.00;1.70;;;;;;;10.77;40.33;99065.03;239535;1196;23257;-76
2021/04/25 11:00:34;;;;;;;2.43;1.80;;;;;;;10.68;39.24;99062.16;239862;1196;23227;-76
2021/04/25 11:05:37;;;;;;;4.60;2.00;;;;;;;10.79;39.47;99058.30;239413;1195;23217;-76
2021/04/25 11:11:11;;;;;;;1.95;1.35;;;;;;;10.83;38.99;99058.55;239725;1196;23269;-76
2021/04/25 11:16:14;;;;;;;2.07;1.40;;;;;;;10.76;37.37;99058.09;239588;1195;23137;-75
2021/04/25 11:21:26;;;;;;;2.80;1.93;;;;;;;10.81;38.53;99063.38;239782;1196;23586;-75
2021/04/25 11:26:36;;;;;;;2.25;1.60;;;;;;;10.90;37.03;99066.27;239614;1196;26355;-76
2021/04/25 11:36:48;;;;;;;1.50;1.40;;;;;;;10.99;36.31;99071.80;240122;1195;23118;-76
2021/04/25 11:41:52;;;;;;;2.13;1.30;;;;;;;10.64;35.87;99074.52;239601;1195;23268;-76
2021/04/25 11:46:56;;;;;;;1.80;1.40;;;;;;;10.25;35.84;99070.80;239384;1196;23282;-77
2021/04/25 11:52:10;;;;;;;1.87;1.03;;;;;;;10.20;36.61;99052.08;239785;1199;23106;-76
2021/04/25 11:57:16;;;;;;;1.30;1.13;;;;;;;10.18;36.88;99072.95;239511;1199;23128;-75
2021/04/25 12:02:22;;;;;;;2.70;1.20;;;;;;;9.96;36.70;99064.54;239546;1196;23115;-77
2021/04/25 12:07:39;;;;;;;1.47;1.20;;;;;;;9.84;36.98;99075.59;239861;1196;23099;-77
2021/04/25 12:13:01;;;;;;;2.70;1.40;;;;;;;9.63;36.41;99078.36;239608;1199;23280;-76
2021/04/25 12:18:16;;;;;;;2.43;1.27;;;;;;;9.56;36.35;99067.95;239492;1195;23198;-76
2021/04/25 12:23:23;;;;;;;2.60;1.30;;;;;;;9.77;37.05;99065.19;239278;1197;23166;-75
2021/04/25 12:28:43;;;;;;;2.23;1.37;;;;;;;10.16;36.96;99069.77;239953;1196;23118;-75
2021/04/25 12:33:47;;;;;;;1.80;1.27;;;;;;;10.21;36.19;99067.07;239553;1196;23279;-76
2021/04/25 12:39:05;;;;;;;2.53;1.20;;;;;;;9.97;36.40;99071.50;239622;1199;26227;-76
2021/04/25 12:44:08;;;;;;;3.03;1.00;;;;;;;9.75;36.48;99068.14;239503;1196;23270;-76
2021/04/25 12:49:11;;;;;;;1.83;1.07;;;;;;;9.75;37.90;99068.14;239831;1195;23135;-76
2021/04/25 12:54:19;;;;;;;1.97;1.20;;;;;;;9.82;37.23;99069.70;239610;1196;27531;-76
2021/04/25 12:59:30;;;;;;;2.50;1.30;;;;;;;9.92;37.05;99048.25;239703;1196;23108;-76
2021/04/25 13:04:35;;;;;;;1.43;1.10;;;;;;;9.88;37.32;99066.72;239393;1196;23249;-76
2021/04/25 13:09:38;;;;;;;3.37;1.13;;;;;;;9.73;37.36;99054.22;239604;1199;24389;-76
2021/04/25 13:15:03;;;;;;;1.83;1.07;;;;;;;9.58;36.98;99067.67;239548;1199;23241;-77
2021/04/25 13:20:19;;;;;;;1.83;1.00;;;;;;;9.51;36.71;99062.61;239759;1196;23086;-76
2021/04/25 13:25:24;;;;;;;1.40;1.30;;;;;;;9.56;36.59;99046.55;239658;1196;23115;-76
2021/04/25 13:30:41;;;;;;;1.55;1.00;;;;;;;9.52;37.11;99048.17;239666;1194;23111;-76
2021/04/25 13:35:45;;;;;;;2.43;1.17;;;;;;;9.44;35.50;99029.23;239626;1199;23100;-76
2021/04/25 13:40:51;;;;;;;1.40;1.10;;;;;;;9.28;35.09;99026.63;239874;1199;23112;-76
2021/04/25 13:45:54;;;;;;;1.07;0.83;;;;;;;9.44;35.07;99029.23;239639;1196;23136;-76
2021/04/25 13:50:58;;;;;;;0.97;0.70;;;;;;;9.69;34.03;99029.09;239705;1196;23134;-75
2021/04/25 13:56:03;;;;;;;2.85;1.00;;;;;;;9.90;32.96;99011.04;239613;1196;23125;-76
2021/04/25 14:01:06;;;;;;;1.70;0.90;;;;;;;10.05;34.35;99015.50;239839;1196;23338;-76
2021/04/25 14:06:09;;;;;;;0.60;0.60;;;;;;;10.39;33.93;99013.94;239609;1196;23102;-76
2021/04/25 14:11:15;;;;;;;0.97;0.60;;;;;;;10.59;33.37;99016.44;239656;1199;23105;-75
2021/04/25 14:16:18;;;;;;;1.57;0.80;;;;;;;10.60;31.41;99017.23;239902;1196;23240;-76
2021/04/25 14:21:23;;;;;;;1.20;0.80;;;;;;;10.66;32.83;99015.30;239767;1196;23269;-76
2021/04/25 14:26:26;;;;;;;0.57;0.40;;;;;;;10.82;30.37;99024.00;239857;1196;23081;-74
2021/04/25 14:31:30;;;;;;;0.83;0.53;;;;;;;10.63;30.97;99022.02;239709;1196;23099;-76
2021/04/25 14:36:34;;;;;;;2.20;0.85;;;;;;;10.42;32.09;99014.19;239808;1199;23120;-76
2021/04/25 14:41:38;;;;;;;0.90;0.80;;;;;;;10.41;31.29;99014.47;239611;1196;23124;-76
2021/04/25 14:46:41;;;;;;;1.80;1.00;;;;;;;10.06;32.08;99040.41;239645;1196;26003;-76
2021/04/25 14:51:44;;;;;;;1.67;0.70;;;;;;;9.66;32.22;99035.00;239310;1196;23142;-76
2021/04/25 14:56:48;;;;;;;2.23;0.60;;;;;;;9.46;33.09;99027.07;239751;1196;23279;-76
2021/04/25 15:01:52;;;;;;;1.57;0.80;;;;;;;9.40;32.43;99029.78;239800;1196;23108;-77
2021/04/25 15:06:55;;;;;;;0.87;0.63;;;;;;;9.50;31.75;99028.94;239796;1195;23115;-77
2021/04/25 15:11:57;;;;;;;2.25;0.80;;;;;;;9.74;32.29;99030.96;239731;1196;23202;-77
2021/04/25 15:17:00;;;;;;;1.55;0.75;;;;;;;9.93;32.93;99020.39;239764;1196;23128;-76
2021/04/25 15:22:04;;;;;;;0.80;0.60;;;;;;;10.09;32.82;99024.57;239452;1199;23135;-75
2021/04/25 15:27:06;;;;;;;1.20;0.60;;;;;;;10.20;32.10;99032.52;239687;1196;23106;-75
2021/04/25 15:32:09;;;;;;;1.70;1.05;;;;;;;10.24;31.96;99031.70;239544;1196;23138;-78
2021/04/25 15:37:15;;;;;;;0.90;0.70;;;;;;;10.24;31.62;99042.41;240057;1196;23116;-75
2021/04/25 15:42:21;;;;;;;1.90;1.00;;;;;;;9.94;31.68;99033.49;239599;1196;23283;-75
2021/04/25 15:47:24;;;;;;;0.97;0.63;;;;;;;9.76;32.16;99032.29;239613;1196;27291;-76
2021/04/25 15:52:27;;;;;;;2.60;0.90;;;;;;;9.72;31.59;99049.15;239503;1196;23128;-76
2021/04/25 15:57:32;;;;;;;1.40;0.70;;;;;;;9.67;32.26;99033.94;239610;1196;23115;-76
2021/04/25 16:02:35;;;;;;;3.95;0.80;;;;;;;9.67;33.52;99041.95;239327;1198;23122;-76
2021/04/25 16:07:39;;;;;;;1.60;0.65;;;;;;;9.52;32.51;99025.98;239674;1199;23109;-76
2021/04/25 16:12:43;;;;;;;26.20;17.10;;;;;;;9.28;33.12;99048.01;239375;1199;23119;-75
2021/04/25 16:17:45;;;;;;;1.73;1.50;;;;;;;8.98;33.37;99049.70;239564;1196;23112;-76
2021/04/25 16:22:48;;;;;;;1.70;1.00;;;;;;;8.67;33.42;99049.73;239569;1197;23263;-76
2021/04/25 16:27:51;;;;;;;2.63;1.30;;;;;;;8.48;34.17;99041.48;239527;1199;23134;-76
2021/04/25 16:32:55;;;;;;;3.05;0.90;;;;;;;8.35;34.89;99053.47;239351;1196;23118;-76
2021/04/25 16:37:58;;;;;;;2.65;0.80;;;;;;;8.27;35.71;99059.33;239820;1197;23141;-77
2021/04/25 16:43:01;;;;;;;2.20;1.10;;;;;;;8.26;35.43;99062.27;239888;1196;23145;-76
2021/04/25 16:48:06;;;;;;;8.85;1.40;;;;;;;8.28;35.04;99071.63;239501;1196;26163;-75
2021/04/25 16:53:11;;;;;;;4.67;1.40;;;;;;;8.32;35.86;99063.86;239374;1196;24891;-76
2021/04/25 16:58:17;;;;;;;2.55;1.25;;;;;;;8.31;35.89;99078.27;239932;1196;27317;-76
2021/04/25 17:03:21;;;;;;;1.83;1.00;;;;;;;8.17;36.01;99073.47;239742;1196;23116;-75
2021/04/25 17:08:24;;;;;;;3.65;1.00;;;;;;;8.04;36.03;99082.79;240055;1196;23102;-75
2021/04/25 17:13:27;;;;;;;2.13;1.07;;;;;;;7.94;36.73;99097.97;239682;1196;23180;-75
2021/04/25 17:18:31;;;;;;;4.30;2.13;;;;;;;7.79;37.49;99094.20;239580;1196;23147;-76
2021/04/25 17:23:34;;;;;;;4.50;1.80;;;;;;;7.66;36.95;99097.34;239755;1196;23172;-75
2021/04/25 17:28:37;;;;;;;3.83;1.70;;;;;;;7.50;37.88;99101.81;239597;1196;23134;-76
2021/04/25 17:33:47;;;;;;;3.50;1.60;;;;;;;7.33;38.02;99097.46;239612;1195;23106;-76
2021/04/25 17:38:52;;;;;;;3.40;1.95;;;;;;;7.17;38.81;99098.44;239725;1196;23154;-76
2021/04/25 17:43:56;;;;;;;6.55;3.10;;;;;;;7.01;38.84;99098.34;239816;1196;24587;-76
2021/04/25 17:48:59;;;;;;;4.20;2.10;;;;;;;6.88;39.20;99098.77;239697;1196;23138;-76
2021/04/25 17:54:02;;;;;;;4.23;2.10;;;;;;;6.73;39.82;99098.66;239438;1196;23303;-76
2021/04/25 17:59:05;;;;;;;3.17;1.50;;;;;;;6.51;40.66;99108.34;239818;1196;23261;-75
2021/04/25 18:04:07;;;;;;;2.23;1.30;;;;;;;6.27;40.60;99107.07;239557;1196;23276;-76
2021/04/25 18:09:10;;;;;;;2.70;1.90;;;;;;;6.03;41.28;99117.19;239726;1196;23263;-76
2021/04/25 18:14:14;;;;;;;4.67;2.90;;;;;;;5.78;41.25;99118.49;239533;1196;23290;-75
2021/04/25 18:19:18;;;;;;;5.45;2.35;;;;;;;5.56;41.84;99129.91;239397;1196;23106;-75
2021/04/25 18:24:22;;;;;;;4.97;2.90;;;;;;;5.36;42.12;99134.95;239567;1196;23104;-76
2021/04/25 18:29:26;;;;;;;5.13;2.83;;;;;;;5.14;42.67;99135.72;239661;1199;23114;-76
2021/04/25 18:34:29;;;;;;;5.57;2.37;;;;;;;4.97;42.89;99136.53;239759;1196;23169;-75
2021/04/25 18:39:32;;;;;;;4.27;2.00;;;;;;;4.83;43.37;99148.53;239655;1196;23208;-75
2021/04/25 18:44:37;;;;;;;7.65;4.10;;;;;;;4.69;43.83;99147.25;239681;1196;23103;-76
2021/04/25 18:49:40;;;;;;;11.30;5.27;;;;;;;4.55;44.37;99152.05;239469;1196;23266;-75
2021/04/25 18:54:42;;;;;;;11.23;5.13;;;;;;;4.43;44.53;99157.41;239486;1196;23112;-74
2021/04/25 18:59:47;;;;;;;18.30;4.97;;;;;;;4.31;44.74;99167.25;239755;1196;23147;-75
2021/04/25 19:04:52;;;;;;;7.60;3.40;;;;;;;4.17;45.17;99159.60;239883;1199;23139;-75
2021/04/25 19:09:58;;;;;;;7.97;3.33;;;;;;;4.08;45.67;99166.31;239358;1196;23128;-75
2021/04/25 19:15:01;;;;;;;4.70;2.85;;;;;;;3.97;46.24;99170.59;239762;1196;23108;-76
2021/04/25 19:20:07;;;;;;;4.73;2.37;;;;;;;3.88;46.46;99174.67;239437;1199;23098;-75
2021/04/25 19:25:11;;;;;;;6.13;3.20;;;;;;;3.77;46.37;99171.80;239435;1196;23095;-75
2021/04/25 19:30:16;;;;;;;6.63;2.90;;;;;;;3.68;46.65;99175.04;239521;1196;24571;-75
2021/04/25 19:35:21;;;;;;;7.40;3.10;;;;;;;3.60;47.06;99181.52;239517;1196;23112;-75
2021/04/25 19:40:25;;;;;;;5.80;3.10;;;;;;;3.51;47.50;99175.78;239156;1196;23119;-75
2021/04/25 19:45:34;;;;;;;7.37;3.70;;;;;;;3.46;47.60;99180.16;239499;1199;26115;-75
2021/04/25 19:50:45;;;;;;;8.05;3.95;;;;;;;3.43;48.16;99178.77;239695;1196;23142;-76
2021/04/25 19:55:49;;;;;;;14.07;5.37;;;;;;;3.43;48.00;99176.92;239296;1196;23119;-76
2021/04/25 20:00:56;;;;;;;16.17;7.47;;;;;;;3.45;48.49;99173.24;239659;1196;23244;-75
2021/04/25 20:05:59;;;;;;;14.50;7.65;;;;;;;3.41;48.80;99171.06;239782;1196;23138;-75
2021/04/25 20:11:03;;;;;;;30.10;11.80;;;;;;;3.35;48.66;99169.32;239866;1196;23111;-76
2021/04/25 20:16:05;;;;;;;39.67;16.87;;;;;;;3.25;49.51;99167.25;239650;1196;23104;-75
2021/04/25 20:21:08;;;;;;;36.47;14.60;;;;;;;3.15;49.58;99163.55;239575;1196;23259;-77
2021/04/25 20:26:11;;;;;;;36.60;16.60;;;;;;;3.05;50.13;99161.48;239843;1196;23137;-75
2021/04/25 20:31:13;;;;;;;36.10;16.20;;;;;;;2.94;50.17;99156.98;239467;1196;23112;-76
2021/04/25 20:36:19;;;;;;;37.30;15.70;;;;;;;2.82;50.72;99157.78;239391;1196;23108;-75
2021/04/25 20:41:22;;;;;;;35.40;14.90;;;;;;;2.72;51.07;99149.60;239556;1196;23162;-75
2021/04/25 20:46:27;;;;;;;35.73;15.60;;;;;;;2.62;51.28;99152.01;239681;1196;23111;-75
2021/04/25 20:51:30;;;;;;;44.53;19.50;;;;;;;2.52;51.67;99163.14;239594;1196;23120;-76
2021/04/25 20:56:33;;;;;;;52.33;23.43;;;;;;;2.45;51.60;99162.41;239595;1196;23140;-76
2021/04/25 21:01:36;;;;;;;55.20;24.83;;;;;;;2.36;52.28;99156.63;239657;1199;24759;-76
2021/04/25 21:06:40;;;;;;;62.07;24.53;;;;;;;2.27;52.32;99156.15;239751;1196;23112;-75
2021/04/25 21:11:44;;;;;;;50.35;21.15;;;;;;;2.19;53.47;99162.54;239476;1196;23095;-75
2021/04/25 21:16:47;;;;;;;57.87;23.33;;;;;;;2.11;54.28;99170.77;239589;1196;23130;-74
2021/04/25 21:21:50;;;;;;;63.70;25.30;;;;;;;2.07;53.81;99172.28;239549;1196;26143;-75
2021/04/25 21:26:52;;;;;;;47.77;21.63;;;;;;;2.02;54.06;99165.00;239734;1196;23136;-75
2021/04/25 21:31:56;;;;;;;40.37;19.37;;;;;;;1.95;54.70;99166.92;239789;1196;23135;-75
2021/04/25 21:37:04;;;;;;;30.37;14.33;;;;;;;1.87;54.66;99165.40;239745;1196;23108;-74
2021/04/25 21:42:06;;;;;;;34.55;15.30;;;;;;;1.78;55.03;99160.64;239521;1196;23102;-75
2021/04/25 21:47:11;;;;;;;33.07;14.63;;;;;;;1.66;55.15;99156.06;239499;1196;23142;-74
2021/04/25 21:52:13;;;;;;;28.90;13.25;;;;;;;1.54;55.79;99158.64;239641;1196;23132;-75
2021/04/25 21:57:17;;;;;;;26.63;12.83;;;;;;;1.44;55.59;99160.99;239796;1196;23340;-75
2021/04/25 22:02:21;;;;;;;32.30;12.70;;;;;;;1.34;56.24;99153.58;239676;1199;23114;-74
2021/04/25 22:07:24;;;;;;;25.65;11.25;;;;;;;1.23;56.23;99148.98;239244;1199;23119;-75
2021/04/25 22:12:27;;;;;;;27.73;12.13;;;;;;;1.12;56.11;99147.89;239397;1199;23567;-75
2021/04/25 22:17:30;;;;;;;26.15;11.70;;;;;;;1.09;56.78;99147.51;239562;1195;23126;-76
2021/04/25 22:22:33;;;;;;;25.20;11.30;;;;;;;1.03;56.81;99149.18;239705;1195;23279;-75
2021/04/25 22:27:38;;;;;;;23.07;11.40;;;;;;;0.98;57.26;99141.09;239722;1195;23121;-76
2021/04/25 22:32:41;;;;;;;25.57;12.00;;;;;;;0.95;57.17;99149.45;239395;1196;26268;-74
2021/04/25 22:37:45;;;;;;;24.30;11.60;;;;;;;0.91;57.25;99148.27;239437;1199;24757;-74
2021/04/25 22:42:49;;;;;;;26.40;11.35;;;;;;;0.87;57.12;99136.53;239402;1197;23141;-75
2021/04/25 22:47:54;;;;;;;27.07;12.23;;;;;;;0.83;57.16;99139.61;239628;1196;23118;-75
2021/04/25 22:52:57;;;;;;;29.67;13.17;;;;;;;0.76;57.18;99138.86;239220;1196;23106;-74
2021/04/25 22:58:00;;;;;;;32.90;14.73;;;;;;;0.68;58.11;99141.75;239725;1196;23130;-76
2021/04/25 23:03:06;;;;;;;28.85;14.30;;;;;;;0.61;58.38;99139.16;239407;1196;23103;-74
2021/04/25 23:08:10;;;;;;;35.75;16.20;;;;;;;0.53;58.72;99138.62;239625;1196;23134;-75
2021/04/25 23:13:14;;;;;;;30.80;14.90;;;;;;;0.46;58.83;99133.39;239451;1195;23108;-74
2021/04/25 23:18:17;;;;;;;33.33;15.13;;;;;;;0.39;59.24;99135.27;239172;1196;23115;-75
2021/04/25 23:23:20;;;;;;;37.70;15.70;;;;;;;0.36;58.87;99136.48;239605;1196;23115;-75
2021/04/25 23:28:23;;;;;;;28.83;12.73;;;;;;;0.35;59.84;99129.63;239196;1195;23113;-75
2021/04/25 23:33:25;;;;;;;25.13;11.27;;;;;;;0.34;59.39;99133.27;239403;1196;23138;-74
2021/04/25 23:38:28;;;;;;;23.30;10.97;;;;;;;0.33;60.08;99131.66;239455;1196;23131;-75